Birigui, Brazil
Current Conditions -  °F | °C
As of 5:00 PM on Monday 22 Dec 2014 (Local Time) from SBSR Reporting Station
Scattered Clouds Scattered Clouds  
Wind Chill: 86°   Ceiling: Unl
Heat Index: 88°   Visibility: 6mi
Dew Point: 66°   Wind: 12mph
Humidity: 51%   Direction: 330°NNW
Pressure: 29.85"   Gusts: NA
Location:  21.29°S, 50.34°W
Report Text: SBSR 221900Z 33010KT 9999 FEW045 SCT080 30/19 Q1011
Loading
Personal Weather Stations






























Interactive Weather Map New forecast layout! Learn more

10-Day Weather Forecast

Advertisements
Track Severe Weather on mobile